Time;durP1;ratioP1;P1;durP2;ratioP2;P2;SDS_P1;SDS_P2;PMS_P1;PMS_P2;Temp;Humidity;BMP_temperature;BMP_pressure;BME280_temperature;BME280_humidity;BME280_pressure;Samples;Min_cycle;Max_cycle;Signal;HPM_P1;HPM_P2
2022/08/31 00:04:48;;;;;;;4.60;3.40;;;21.60;65.20;;;;;;10475000;28;20211;-70
2022/08/31 00:09:49;;;;;;;5.47;2.97;;;21.50;65.50;;;;;;10469657;28;20694;-69
2022/08/31 00:14:50;;;;;;;5.43;2.70;;;21.50;65.70;;;;;;10470991;28;20258;-70
2022/08/31 00:19:51;;;;;;;5.87;3.43;;;21.50;65.90;;;;;;10465676;28;20307;-70
2022/08/31 00:24:51;;;;;;;11.50;3.63;;;21.40;66.10;;;;;;10480090;28;20212;-70
2022/08/31 00:29:53;;;;;;;5.97;2.83;;;21.40;66.60;;;;;;10474113;28;20207;-70
2022/08/31 00:34:53;;;;;;;6.57;2.83;;;21.30;67.00;;;;;;10464908;28;20302;-69
2022/08/31 00:39:54;;;;;;;6.77;3.50;;;21.30;67.30;;;;;;10480151;28;20290;-69
2022/08/31 00:44:54;;;;;;;3.57;3.27;;;21.30;67.60;;;;;;10473231;28;20208;-69
2022/08/31 00:49:55;;;;;;;3.30;2.90;;;21.30;67.70;;;;;;10481489;28;20817;-71
2022/08/31 00:55:00;;;;;;;3.13;2.83;;;21.20;67.90;;;;;;10473460;28;20239;-70
2022/08/31 01:00:05;;;;;;;4.70;2.90;;;21.20;68.20;;;;;;10478863;28;20222;-70
2022/08/31 01:05:07;;;;;;;7.23;3.40;;;21.10;68.50;;;;;;10478366;28;20292;-69
2022/08/31 01:10:08;;;;;;;4.93;3.67;;;21.00;68.80;;;;;;10471522;28;20191;-70
2022/08/31 01:15:10;;;;;;;3.93;3.00;;;21.00;69.20;;;;;;10474182;28;20176;-70
2022/08/31 01:21:15;;;;;;;6.63;3.17;;;20.90;69.40;;;;;;10477550;28;20219;-69
2022/08/31 01:26:21;;;;;;;4.97;3.13;;;20.90;69.70;;;;;;10438034;28;20215;-69
2022/08/31 01:31:26;;;;;;;8.33;3.60;;;20.90;70.00;;;;;;10475496;28;20671;-70
2022/08/31 01:36:27;;;;;;;5.93;3.37;;;20.90;70.00;;;;;;10471257;28;20243;-69
2022/08/31 01:41:28;;;;;;;4.57;3.30;;;20.90;70.10;;;;;;10475917;28;20662;-73
2022/08/31 01:46:29;;;;;;;3.33;2.90;;;20.90;70.30;;;;;;10473891;28;20314;-69
2022/08/31 01:51:32;;;;;;;4.97;3.30;;;20.90;70.40;;;;;;10470376;28;20699;-70
2022/08/31 01:56:43;;;;;;;4.87;2.93;;;21.00;70.40;;;;;;10471122;28;20217;-70
2022/08/31 02:01:46;;;;;;;6.50;3.23;;;21.00;70.40;;;;;;10470281;28;21042;-70
2022/08/31 02:06:49;;;;;;;4.43;2.90;;;21.00;70.50;;;;;;10477974;28;20211;-69
2022/08/31 02:11:51;;;;;;;9.27;3.00;;;21.00;70.80;;;;;;10469494;28;20223;-69
2022/08/31 02:16:51;;;;;;;4.67;3.43;;;20.90;71.10;;;;;;10461564;28;20306;-69
2022/08/31 02:21:52;;;;;;;9.93;3.33;;;20.90;71.60;;;;;;10469787;28;20303;-68
2022/08/31 02:26:52;;;;;;;4.60;2.93;;;20.80;72.10;;;;;;10476793;28;20221;-69
2022/08/31 02:31:53;;;;;;;3.53;3.23;;;20.70;72.50;;;;;;10459464;28;20235;-69
2022/08/31 02:36:54;;;;;;;6.23;3.43;;;20.60;73.20;;;;;;10476642;28;20272;-70
2022/08/31 02:41:55;;;;;;;6.13;3.10;;;20.50;73.60;;;;;;10476362;28;20272;-69
2022/08/31 02:46:56;;;;;;;5.47;3.23;;;20.50;74.00;;;;;;10477215;28;20314;-69
2022/08/31 02:52:03;;;;;;;6.30;2.90;;;20.50;74.20;;;;;;10468810;28;20258;-70
2022/08/31 02:57:03;;;;;;;5.93;3.00;;;20.50;74.50;;;;;;10475541;28;20732;-70
2022/08/31 03:02:04;;;;;;;6.83;3.60;;;20.50;74.60;;;;;;10469575;28;20246;-69
2022/08/31 03:07:05;;;;;;;3.60;2.97;;;20.60;74.80;;;;;;10475515;28;20305;-69
2022/08/31 03:12:05;;;;;;;5.20;3.20;;;20.50;75.20;;;;;;10470125;28;20222;-71
2022/08/31 03:17:09;;;;;;;6.93;3.40;;;20.40;75.30;;;;;;10467821;28;20280;-70
2022/08/31 03:22:12;;;;;;;5.10;3.47;;;20.40;75.30;;;;;;10473733;28;20211;-70
2022/08/31 03:27:12;;;;;;;3.97;3.00;;;20.40;75.70;;;;;;10470818;28;20219;-70
2022/08/31 03:32:13;;;;;;;7.90;3.40;;;20.40;76.00;;;;;;10472003;28;20223;-70
2022/08/31 03:37:13;;;;;;;8.07;3.30;;;20.40;76.10;;;;;;10483016;28;20219;-70
2022/08/31 03:42:18;;;;;;;5.93;3.40;;;20.40;76.30;;;;;;10471167;28;20302;-71
2022/08/31 03:47:20;;;;;;;7.20;3.60;;;20.40;76.50;;;;;;10469626;28;20234;-70
2022/08/31 03:52:21;;;;;;;3.90;3.30;;;20.30;76.60;;;;;;10479589;28;20227;-69
2022/08/31 03:57:22;;;;;;;7.27;3.70;;;20.30;76.90;;;;;;10478800;28;20229;-69
2022/08/31 04:02:24;;;;;;;5.33;3.60;;;20.40;77.00;;;;;;10475423;28;20397;-69
2022/08/31 04:07:24;;;;;;;4.90;3.50;;;20.30;77.20;;;;;;10478443;28;20230;-69
2022/08/31 04:12:25;;;;;;;4.73;3.70;;;20.30;77.50;;;;;;10478204;28;20294;-69
2022/08/31 04:17:26;;;;;;;7.70;3.70;;;20.20;77.70;;;;;;10477622;28;20289;-68
2022/08/31 04:22:26;;;;;;;4.13;3.70;;;20.20;78.00;;;;;;10477940;28;20211;-67
2022/08/31 04:27:28;;;;;;;6.17;3.50;;;20.20;78.40;;;;;;10476205;28;20277;-68
2022/08/31 04:32:28;;;;;;;8.13;4.37;;;20.10;78.50;;;;;;10474545;28;20233;-72
2022/08/31 04:37:29;;;;;;;7.33;3.63;;;20.10;78.90;;;;;;10475341;28;20234;-67
2022/08/31 04:42:30;;;;;;;5.00;3.93;;;20.00;79.10;;;;;;10476080;28;20698;-67
2022/08/31 04:47:31;;;;;;;4.60;3.23;;;20.10;79.20;;;;;;10477051;28;20357;-67
2022/08/31 04:52:31;;;;;;;6.57;3.70;;;20.10;79.40;;;;;;10480656;28;20279;-74
2022/08/31 04:57:35;;;;;;;9.67;3.87;;;20.10;79.60;;;;;;10476202;28;20224;-74
2022/08/31 05:02:36;;;;;;;5.50;3.80;;;20.20;79.60;;;;;;10476881;28;20218;-75
2022/08/31 05:07:36;;;;;;;10.03;3.80;;;20.10;79.50;;;;;;10474693;28;20281;-76
2022/08/31 05:12:37;;;;;;;6.27;3.60;;;20.10;79.60;;;;;;10478096;28;20296;-76
2022/08/31 05:17:38;;;;;;;6.97;3.40;;;20.10;79.80;;;;;;10471415;28;20218;-74
2022/08/31 05:22:38;;;;;;;7.17;3.77;;;20.00;80.20;;;;;;10473134;28;20306;-74
2022/08/31 05:27:40;;;;;;;8.97;3.73;;;20.00;80.70;;;;;;10477787;28;20231;-74
2022/08/31 05:32:41;;;;;;;5.57;3.50;;;19.90;81.20;;;;;;10472755;28;20223;-68
2022/08/31 05:37:42;;;;;;;6.10;3.90;;;19.90;81.60;;;;;;10475837;28;20910;-67
2022/08/31 05:42:42;;;;;;;8.83;3.77;;;19.90;82.00;;;;;;10472195;28;20211;-68
2022/08/31 05:47:43;;;;;;;11.83;4.07;;;19.90;82.30;;;;;;10477776;28;20234;-69
2022/08/31 05:52:44;;;;;;;6.53;3.30;;;19.80;82.70;;;;;;10470019;28;20219;-68
2022/08/31 05:57:44;;;;;;;10.47;4.10;;;19.80;83.20;;;;;;10476258;28;20235;-69
2022/08/31 06:02:45;;;;;;;5.30;4.00;;;19.80;83.50;;;;;;10469330;28;20223;-69
2022/08/31 06:07:46;;;;;;;7.27;3.87;;;19.90;83.60;;;;;;10475966;28;20677;-68
2022/08/31 06:12:49;;;;;;;8.00;4.13;;;19.90;83.60;;;;;;10469814;28;20593;-69
2022/08/31 06:17:49;;;;;;;6.57;3.97;;;20.00;83.70;;;;;;10474111;28;20219;-68
2022/08/31 06:22:51;;;;;;;9.20;3.90;;;20.00;83.90;;;;;;10476586;28;20302;-67
2022/08/31 06:27:55;;;;;;;5.33;4.10;;;19.90;85.50;;;;;;10469400;28;20222;-68
2022/08/31 06:32:55;;;;;;;9.30;4.27;;;19.70;88.30;;;;;;10463376;28;20299;-68
2022/08/31 06:37:56;;;;;;;7.00;4.33;;;19.50;90.50;;;;;;10465090;28;20303;-69
2022/08/31 06:42:56;;;;;;;12.00;5.10;;;19.30;92.00;;;;;;10466415;28;20298;-67
2022/08/31 06:47:59;;;;;;;7.13;4.43;;;19.30;93.60;;;;;;10468698;28;20227;-68
2022/08/31 06:53:00;;;;;;;8.23;5.00;;;19.10;94.90;;;;;;10469241;28;20223;-67
2022/08/31 06:58:01;;;;;;;6.50;5.60;;;19.10;96.90;;;;;;10475492;28;20227;-68
2022/08/31 07:03:21;;;;;;;9.00;5.90;;;19.00;99.70;;;;;;10467945;28;20208;-68
2022/08/31 07:08:22;;;;;;;7.90;5.47;;;19.10;99.90;;;;;;10471214;28;20214;-68
2022/08/31 07:13:22;;;;;;;6.80;6.00;;;19.10;99.90;;;;;;10471897;28;20253;-68
2022/08/31 07:18:23;;;;;;;8.10;6.07;;;19.10;99.90;;;;;;10471371;28;20223;-72
2022/08/31 07:23:24;;;;;;;7.40;6.30;;;19.20;99.90;;;;;;10475436;28;20245;-68
2022/08/31 07:28:25;;;;;;;7.40;6.13;;;19.30;99.90;;;;;;10479755;28;20223;-67
2022/08/31 07:33:25;;;;;;;9.90;5.83;;;19.30;99.90;;;;;;10480574;28;20215;-68
2022/08/31 07:43:45;;;;;;;7.63;6.47;;;19.30;99.90;;;;;;10482737;28;20215;-68
2022/08/31 07:48:45;;;;;;;8.30;6.70;;;19.20;99.90;;;;;;10475313;28;20218;-68
2022/08/31 07:53:46;;;;;;;9.57;7.43;;;19.40;99.90;;;;;;10475328;28;20230;-69
2022/08/31 07:58:48;;;;;;;9.53;7.10;;;19.30;99.90;;;;;;10476492;28;20233;-69
2022/08/31 08:03:52;;;;;;;6.30;5.70;;;19.30;99.90;;;;;;10482306;28;20215;-67
2022/08/31 08:08:54;;;;;;;10.73;7.80;;;19.30;99.90;;;;;;10466614;28;20277;-68
2022/08/31 08:13:54;;;;;;;7.83;7.03;;;19.30;99.90;;;;;;10482288;28;20310;-68
2022/08/31 08:18:55;;;;;;;9.87;7.43;;;19.30;99.90;;;;;;10474117;28;20349;-70
2022/08/31 08:23:56;;;;;;;9.67;6.13;;;19.40;99.90;;;;;;10481175;28;20685;-68
2022/08/31 08:28:57;;;;;;;11.17;7.27;;;19.50;99.90;;;;;;10473821;28;20244;-68
2022/08/31 08:33:57;;;;;;;9.13;6.17;;;19.60;99.90;;;;;;10481194;28;20251;-68
2022/08/31 08:38:58;;;;;;;10.00;6.67;;;19.50;99.90;;;;;;10479054;28;20223;-68
2022/08/31 08:44:01;;;;;;;10.83;7.03;;;19.60;99.90;;;;;;10473994;28;20285;-68
2022/08/31 08:49:44;;;;;;;7.43;6.63;;;19.80;99.90;;;;;;10478780;28;20265;-67
2022/08/31 08:54:47;;;;;;;8.90;6.43;;;19.90;99.90;;;;;;10479436;28;20230;-68
2022/08/31 08:59:49;;;;;;;9.63;6.77;;;20.00;99.90;;;;;;10472639;28;20234;-68
2022/08/31 09:05:14;;;;;;;12.03;7.13;;;20.20;99.90;;;;;;10472725;28;20215;-70
2022/08/31 09:10:26;;;;;;;8.73;6.67;;;20.40;99.90;;;;;;10469351;28;20560;-68
2022/08/31 09:15:51;;;;;;;7.23;6.53;;;20.40;99.90;;;;;;10474782;28;20609;-69
2022/08/31 09:21:19;;;;;;;8.73;6.97;;;20.50;99.90;;;;;;10479667;28;20223;-68
2022/08/31 09:26:24;;;;;;;7.87;6.67;;;20.60;99.90;;;;;;10459683;28;20270;-68
2022/08/31 09:31:36;;;;;;;8.40;6.60;;;20.50;99.90;;;;;;10475607;28;20273;-70
2022/08/31 09:36:39;;;;;;;8.43;6.93;;;20.70;99.90;;;;;;10469905;28;20309;-69
2022/08/31 09:41:40;;;;;;;8.43;6.73;;;20.90;99.90;;;;;;10472458;28;20310;-67
2022/08/31 09:46:47;;;;;;;8.47;7.13;;;21.00;99.90;;;;;;10477546;28;20223;-69
2022/08/31 09:51:48;;;;;;;10.30;6.93;;;21.30;99.90;;;;;;10469389;28;20697;-70
2022/08/31 09:56:57;;;;;;;9.83;7.27;;;21.70;99.90;;;;;;10470603;28;20258;-67
2022/08/31 10:01:59;;;;;;;9.37;7.67;;;21.80;99.90;;;;;;10471602;28;20698;-68
2022/08/31 10:07:10;;;;;;;8.83;7.57;;;21.80;99.90;;;;;;10479881;28;20215;-69
2022/08/31 10:12:42;;;;;;;9.80;6.50;;;21.90;99.90;;;;;;10474305;28;20620;-68
2022/08/31 10:18:10;;;;;;;12.97;5.70;;;22.30;99.90;;;;;;10474892;28;20315;-69
2022/08/31 10:23:34;;;;;;;5.00;4.40;;;22.80;99.90;;;;;;10477705;28;20224;-68
2022/08/31 10:28:42;;;;;;;7.93;4.77;;;23.50;99.90;;;;;;10469125;28;20222;-68
2022/08/31 10:39:28;;;;;;;8.10;5.07;;;24.70;99.90;;;;;;10459150;28;20700;-67
2022/08/31 10:44:58;;;;;;;7.20;4.50;;;24.50;98.80;;;;;;10456148;28;20211;-69
2022/08/31 10:50:01;;;;;;;9.97;5.20;;;24.50;98.80;;;;;;10462028;28;20233;-68
2022/08/31 10:55:16;;;;;;;6.97;4.77;;;24.50;99.50;;;;;;10468341;28;20223;-68
2022/08/31 11:00:44;;;;;;;8.93;5.03;;;24.10;99.50;;;;;;10470244;28;20219;-68
2022/08/31 11:06:18;;;;;;;6.33;4.07;;;24.10;99.10;;;;;;10475438;28;20281;-67
2022/08/31 11:11:38;;;;;;;7.87;4.90;;;24.30;98.70;;;;;;10432389;28;20708;-68
2022/08/31 11:16:39;;;;;;;6.87;4.70;;;24.60;97.80;;;;;;10470169;28;20677;-68
2022/08/31 11:21:54;;;;;;;6.13;4.47;;;24.80;96.50;;;;;;10474540;28;20237;-70
2022/08/31 11:27:05;;;;;;;10.03;4.43;;;25.30;94.40;;;;;;10459664;28;20233;-68
2022/08/31 11:32:16;;;;;;;7.93;4.27;;;25.70;93.70;;;;;;10474547;28;20226;-68
2022/08/31 11:37:51;;;;;;;6.67;4.60;;;25.50;92.50;;;;;;10471392;28;20703;-69
2022/08/31 11:42:59;;;;;;;4.53;4.13;;;25.50;91.70;;;;;;10465733;28;20677;-69
2022/08/31 11:48:44;;;;;;;6.27;4.43;;;25.50;91.70;;;;;;10468922;28;20316;-68
2022/08/31 11:53:51;;;;;;;5.80;4.10;;;25.60;90.80;;;;;;10474573;28;20233;-68
2022/08/31 11:59:30;;;;;;;8.27;4.47;;;26.20;88.10;;;;;;10466490;28;20591;-68
2022/08/31 12:04:45;;;;;;;5.37;4.27;;;26.10;85.10;;;;;;10463776;28;20226;-69
2022/08/31 12:09:55;;;;;;;6.17;4.43;;;26.30;84.50;;;;;;10478230;28;20253;-69
2022/08/31 12:15:36;;;;;;;8.53;3.90;;;26.50;83.00;;;;;;10466979;28;20297;-69
2022/08/31 12:26:31;;;;;;;5.23;3.63;;;27.60;77.30;;;;;;10467219;28;20220;-69
2022/08/31 12:31:35;;;;;;;5.60;4.20;;;27.30;75.70;;;;;;10477985;28;20297;-68
2022/08/31 12:36:36;;;;;;;6.57;4.17;;;27.90;74.40;;;;;;10471852;28;20240;-68
2022/08/31 12:41:41;;;;;;;3.73;3.43;;;28.10;72.00;;;;;;10475455;28;20388;-68
2022/08/31 12:46:56;;;;;;;10.67;4.20;;;28.10;71.20;;;;;;10472022;28;20219;-68
2022/08/31 12:52:09;;;;;;;5.53;3.67;;;27.50;70.20;;;;;;10465524;28;20234;-67
2022/08/31 12:57:49;;;;;;;7.37;3.90;;;27.50;70.60;;;;;;10456296;28;20277;-68
2022/08/31 13:03:00;;;;;;;5.93;3.83;;;26.80;72.80;;;;;;10471565;28;20579;-70
2022/08/31 13:08:17;;;;;;;5.37;4.17;;;26.40;73.70;;;;;;10466433;28;20223;-68
2022/08/31 13:13:24;;;;;;;4.10;3.40;;;26.40;74.00;;;;;;10477132;28;20215;-68
2022/08/31 13:18:33;;;;;;;3.73;3.40;;;27.00;72.90;;;;;;10474966;28;20628;-70
2022/08/31 13:23:47;;;;;;;3.40;3.10;;;27.10;67.10;;;;;;10473223;28;20319;-70
2022/08/31 13:28:52;;;;;;;8.07;4.20;;;27.30;67.40;;;;;;10471601;28;20708;-67
2022/08/31 13:33:55;;;;;;;10.57;4.03;;;27.20;68.10;;;;;;10479294;28;20309;-69
2022/08/31 13:39:02;;;;;;;4.57;3.37;;;26.60;69.00;;;;;;10479191;28;20317;-68
2022/08/31 13:44:08;;;;;;;3.60;3.10;;;25.80;70.80;;;;;;10472080;28;20238;-68
2022/08/31 13:49:28;;;;;;;6.83;3.30;;;25.30;71.60;;;;;;10477192;28;20277;-68
2022/08/31 13:54:32;;;;;;;6.10;3.50;;;24.80;72.10;;;;;;10474720;28;20230;-68
2022/08/31 13:59:38;;;;;;;4.40;3.50;;;24.40;73.20;;;;;;10476261;28;20219;-68
2022/08/31 14:04:48;;;;;;;7.10;3.80;;;24.40;74.50;;;;;;10476971;28;20937;-69
2022/08/31 14:10:18;;;;;;;3.97;3.50;;;24.40;74.60;;;;;;10470587;28;20744;-70
2022/08/31 14:15:49;;;;;;;6.10;3.60;;;24.40;74.80;;;;;;10472534;28;20222;-69
2022/08/31 14:21:05;;;;;;;8.40;3.40;;;24.60;74.80;;;;;;10469914;28;20298;-69
2022/08/31 14:26:16;;;;;;;5.23;3.67;;;24.80;74.00;;;;;;10463879;28;20729;-67
2022/08/31 14:31:36;;;;;;;4.07;3.00;;;24.80;74.30;;;;;;10472344;28;20207;-68
2022/08/31 14:36:51;;;;;;;6.93;3.17;;;24.80;70.40;;;;;;10475633;28;20218;-68
2022/08/31 14:41:57;;;;;;;4.07;2.93;;;24.60;70.40;;;;;;10466738;28;20784;-69
2022/08/31 14:46:58;;;;;;;3.73;3.00;;;24.70;70.80;;;;;;10473749;28;20292;-68
2022/08/31 14:52:03;;;;;;;4.93;3.30;;;24.90;69.10;;;;;;10469710;28;20279;-69
2022/08/31 14:57:12;;;;;;;4.53;3.10;;;25.00;67.50;;;;;;10477322;28;20263;-69
2022/08/31 15:02:19;;;;;;;3.33;2.97;;;25.00;68.60;;;;;;10473920;28;20255;-68
2022/08/31 15:07:21;;;;;;;4.70;3.30;;;25.00;68.00;;;;;;10476603;28;20218;-70
2022/08/31 15:12:22;;;;;;;3.80;3.30;;;25.00;67.20;;;;;;10472517;28;20211;-68
2022/08/31 15:17:23;;;;;;;3.00;2.70;;;25.20;67.00;;;;;;10471935;28;20211;-68
2022/08/31 15:22:25;;;;;;;4.40;2.60;;;25.10;64.30;;;;;;10460795;28;20727;-68
2022/08/31 15:27:27;;;;;;;5.20;2.90;;;25.20;63.50;;;;;;10470878;28;20235;-70
2022/08/31 15:32:28;;;;;;;4.10;3.20;;;25.10;62.00;;;;;;10459761;28;20636;-70
2022/08/31 15:37:30;;;;;;;3.17;2.87;;;24.90;64.40;;;;;;10469759;28;20228;-67
2022/08/31 15:42:37;;;;;;;6.30;3.17;;;24.80;64.90;;;;;;10463362;28;20226;-68
2022/08/31 15:53:01;;;;;;;3.90;2.90;;;24.90;65.30;;;;;;10474285;28;20227;-67
2022/08/31 15:58:02;;;;;;;3.37;3.07;;;25.00;64.00;;;;;;10481668;28;20213;-67
2022/08/31 16:03:04;;;;;;;3.30;3.03;;;25.10;64.10;;;;;;10481975;28;20216;-69
2022/08/31 16:08:10;;;;;;;5.57;2.83;;;25.30;63.60;;;;;;10473211;28;20239;-70
2022/08/31 16:13:12;;;;;;;3.53;3.13;;;25.50;64.20;;;;;;10473763;28;20220;-70
2022/08/31 16:18:12;;;;;;;3.20;2.90;;;25.20;63.70;;;;;;10478202;28;20315;-71
2022/08/31 16:23:13;;;;;;;3.10;2.80;;;25.00;64.10;;;;;;10475637;28;20349;-70
2022/08/31 16:28:18;;;;;;;3.07;2.87;;;24.70;64.90;;;;;;10474536;28;20711;-69
2022/08/31 16:33:19;;;;;;;3.37;3.07;;;24.50;63.10;;;;;;10476773;28;20227;-70
2022/08/31 16:38:20;;;;;;;3.50;3.20;;;24.30;64.00;;;;;;10477340;28;20219;-69
2022/08/31 16:43:20;;;;;;;3.57;3.27;;;24.20;65.30;;;;;;10471324;28;20576;-69
2022/08/31 16:53:46;;;;;;;4.17;3.70;;;23.80;66.90;;;;;;10471259;28;20215;-70
2022/08/31 16:58:47;;;;;;;4.93;3.27;;;23.70;69.40;;;;;;10473449;28;20239;-69
2022/08/31 17:03:57;;;;;;;4.77;3.00;;;23.50;69.10;;;;;;10480383;28;20917;-69
2022/08/31 17:09:03;;;;;;;4.67;3.73;;;23.50;68.10;;;;;;10464941;28;20298;-69
2022/08/31 17:14:06;;;;;;;6.70;4.87;;;23.30;68.50;;;;;;10479154;28;20233;-69
2022/08/31 17:19:11;;;;;;;5.20;3.70;;;23.30;74.20;;;;;;10474162;28;20224;-69
2022/08/31 17:24:13;;;;;;;5.23;3.83;;;23.10;72.70;;;;;;10477015;28;20218;-69
2022/08/31 17:29:14;;;;;;;4.80;3.90;;;23.10;74.20;;;;;;10472621;28;20226;-69
2022/08/31 17:34:18;;;;;;;5.43;4.30;;;23.00;74.70;;;;;;10475873;28;20587;-69
2022/08/31 17:39:20;;;;;;;5.07;3.90;;;23.00;75.90;;;;;;10474668;28;20235;-70
2022/08/31 17:44:27;;;;;;;4.33;3.93;;;22.90;75.90;;;;;;10474844;28;20219;-70
2022/08/31 17:49:30;;;;;;;4.63;3.50;;;22.80;75.80;;;;;;10479064;28;20235;-69
2022/08/31 17:54:31;;;;;;;4.77;3.30;;;22.80;70.90;;;;;;10476361;28;20320;-69
2022/08/31 17:59:35;;;;;;;4.30;3.03;;;22.60;70.20;;;;;;10473452;28;20223;-70
2022/08/31 18:04:37;;;;;;;5.80;3.53;;;22.50;71.30;;;;;;10470982;28;20269;-71
2022/08/31 18:09:41;;;;;;;4.07;3.50;;;22.30;71.50;;;;;;10476104;28;20242;-70
2022/08/31 18:14:42;;;;;;;4.60;3.37;;;22.20;72.10;;;;;;10471339;28;20254;-69
2022/08/31 18:19:43;;;;;;;4.33;3.60;;;22.10;72.40;;;;;;10474575;28;20284;-70
2022/08/31 18:24:44;;;;;;;3.77;3.10;;;21.90;73.00;;;;;;10467321;28;20220;-69
2022/08/31 18:29:45;;;;;;;5.23;3.80;;;21.80;73.90;;;;;;10476471;28;20227;-69
2022/08/31 18:34:49;;;;;;;4.17;3.77;;;21.60;76.10;;;;;;10468287;28;20297;-69
2022/08/31 18:45:14;;;;;;;4.57;4.07;;;21.30;79.30;;;;;;10463871;28;20302;-70
2022/08/31 18:50:15;;;;;;;4.90;4.40;;;21.20;80.50;;;;;;10471804;28;20230;-69
2022/08/31 18:55:16;;;;;;;9.67;4.83;;;21.10;81.70;;;;;;10473681;28;20195;-70
2022/08/31 19:00:17;;;;;;;4.50;4.10;;;21.00;83.00;;;;;;10471871;28;20228;-69
2022/08/31 19:05:17;;;;;;;6.43;4.40;;;20.90;84.30;;;;;;10473012;28;20187;-69
2022/08/31 19:10:18;;;;;;;6.33;4.63;;;20.80;85.20;;;;;;10471413;28;20263;-70
2022/08/31 19:15:18;;;;;;;5.67;4.70;;;20.70;86.00;;;;;;10473142;28;20198;-70
2022/08/31 19:20:19;;;;;;;4.93;4.43;;;20.60;86.70;;;;;;10476883;28;20238;-70
2022/08/31 19:25:20;;;;;;;5.37;4.37;;;20.50;87.40;;;;;;10480831;28;20214;-70
2022/08/31 19:30:20;;;;;;;6.80;4.63;;;20.40;88.00;;;;;;10480086;28;20634;-70
2022/08/31 19:35:21;;;;;;;5.17;4.67;;;20.40;88.70;;;;;;10480671;28;20204;-71
2022/08/31 19:40:25;;;;;;;4.90;4.40;;;20.30;89.60;;;;;;10480228;28;20677;-70
2022/08/31 19:45:29;;;;;;;5.37;4.63;;;20.20;90.00;;;;;;10478884;28;20639;-70
2022/08/31 19:50:29;;;;;;;5.87;4.10;;;20.10;90.30;;;;;;10479185;28;20227;-70
2022/08/31 19:55:30;;;;;;;7.50;4.10;;;20.00;90.30;;;;;;10478966;28;20328;-70
2022/08/31 20:00:34;;;;;;;5.40;4.10;;;19.90;90.60;;;;;;10480511;28;20232;-69
2022/08/31 20:05:40;;;;;;;4.70;4.30;;;19.80;90.80;;;;;;10476542;28;20223;-70
2022/08/31 20:10:42;;;;;;;6.47;4.20;;;19.70;90.90;;;;;;10478368;28;20226;-70
2022/08/31 20:15:44;;;;;;;4.50;4.10;;;19.60;91.30;;;;;;10475366;28;20219;-70
2022/08/31 20:20:47;;;;;;;4.43;4.07;;;19.60;91.60;;;;;;10480632;28;20317;-69
2022/08/31 20:25:49;;;;;;;5.10;3.80;;;19.50;91.70;;;;;;10475368;28;20223;-70
2022/08/31 20:30:53;;;;;;;5.07;3.50;;;19.40;91.90;;;;;;10480163;28;20225;-69
2022/08/31 20:35:54;;;;;;;5.80;4.27;;;19.40;92.10;;;;;;10473666;28;20233;-69
2022/08/31 20:40:55;;;;;;;4.60;3.70;;;19.30;92.30;;;;;;10470659;28;20234;-70
2022/08/31 20:46:03;;;;;;;5.10;4.00;;;19.30;92.50;;;;;;10480605;28;20637;-69
2022/08/31 20:51:15;;;;;;;5.07;3.57;;;19.20;92.60;;;;;;10471309;28;20280;-70
2022/08/31 20:56:17;;;;;;;3.80;3.40;;;19.20;92.60;;;;;;10478186;28;20281;-71
2022/08/31 21:01:17;;;;;;;3.93;3.50;;;19.20;92.60;;;;;;10474440;28;20230;-70
2022/08/31 21:06:24;;;;;;;4.87;3.20;;;19.10;92.80;;;;;;10477773;28;20222;-70
2022/08/31 21:11:24;;;;;;;3.60;3.13;;;19.10;92.60;;;;;;10476705;28;20267;-70
2022/08/31 21:16:28;;;;;;;3.97;2.87;;;19.10;92.70;;;;;;10474673;28;20228;-70
2022/08/31 21:21:29;;;;;;;3.83;3.10;;;19.00;93.00;;;;;;10475377;28;20234;-69
2022/08/31 21:26:30;;;;;;;3.43;2.60;;;19.00;92.80;;;;;;10475517;28;20219;-69
2022/08/31 21:31:31;;;;;;;4.53;2.77;;;19.00;92.80;;;;;;10476712;28;20364;-70
2022/08/31 21:36:32;;;;;;;5.27;2.97;;;18.90;93.00;;;;;;10472931;28;20223;-70
2022/08/31 21:41:35;;;;;;;2.90;2.70;;;18.90;93.10;;;;;;10476370;28;20240;-70
2022/08/31 21:46:36;;;;;;;3.83;2.80;;;18.80;93.20;;;;;;10473606;28;20231;-70
2022/08/31 21:51:47;;;;;;;4.33;2.43;;;18.80;93.40;;;;;;10474124;28;20560;-69
2022/08/31 21:56:51;;;;;;;3.10;2.53;;;18.70;93.60;;;;;;10469274;28;20718;-69
2022/08/31 22:01:56;;;;;;;3.07;2.60;;;18.70;93.80;;;;;;10478016;28;20275;-69
2022/08/31 22:06:58;;;;;;;4.07;2.70;;;18.60;93.90;;;;;;10462579;28;20235;-69
2022/08/31 22:12:01;;;;;;;4.87;2.40;;;18.60;94.50;;;;;;10472567;28;20247;-70
2022/08/31 22:17:05;;;;;;;3.83;2.83;;;18.50;94.30;;;;;;10475923;28;20225;-69
2022/08/31 22:22:09;;;;;;;2.73;2.43;;;18.50;94.50;;;;;;10465262;28;20644;-69
2022/08/31 22:27:11;;;;;;;3.67;2.50;;;18.40;94.60;;;;;;10476131;28;20230;-69
2022/08/31 22:32:13;;;;;;;4.57;2.67;;;18.30;94.70;;;;;;10470915;28;20218;-69
2022/08/31 22:37:14;;;;;;;5.27;2.67;;;18.30;94.90;;;;;;10473986;28;20226;-70
2022/08/31 22:42:15;;;;;;;2.90;2.60;;;18.30;95.10;;;;;;10471616;28;20227;-70
2022/08/31 22:47:15;;;;;;;3.00;2.70;;;18.20;95.20;;;;;;10474264;28;20636;-70
2022/08/31 22:52:16;;;;;;;4.87;2.60;;;18.20;95.50;;;;;;10469744;28;20225;-69
2022/08/31 22:57:17;;;;;;;3.77;2.93;;;18.10;95.70;;;;;;10471810;28;20301;-69
2022/08/31 23:02:17;;;;;;;5.00;2.83;;;18.00;96.10;;;;;;10473507;28;20242;-71
2022/08/31 23:07:18;;;;;;;7.40;2.57;;;17.90;96.40;;;;;;10471479;28;20779;-70
2022/08/31 23:12:22;;;;;;;5.00;2.27;;;17.90;96.70;;;;;;10472600;28;20224;-70
2022/08/31 23:17:22;;;;;;;3.03;2.33;;;17.80;97.00;;;;;;10470815;28;20220;-70
2022/08/31 23:22:23;;;;;;;4.00;2.87;;;17.80;97.20;;;;;;10472105;28;20230;-69
2022/08/31 23:27:24;;;;;;;5.87;2.90;;;17.70;97.50;;;;;;10472029;28;20783;-69
2022/08/31 23:32:26;;;;;;;3.20;2.90;;;17.70;98.00;;;;;;10472159;28;20243;-70
2022/08/31 23:37:29;;;;;;;3.30;2.83;;;17.60;98.40;;;;;;10472716;28;20248;-69
2022/08/31 23:42:30;;;;;;;3.43;3.13;;;17.40;98.80;;;;;;10471010;28;20226;-71
2022/08/31 23:47:31;;;;;;;3.13;2.83;;;17.30;99.20;;;;;;10467715;28;20282;-70
2022/08/31 23:52:40;;;;;;;3.53;3.20;;;17.30;99.60;;;;;;10466627;28;20254;-69
2022/08/31 23:57:46;;;;;;;4.80;3.20;;;17.20;99.90;;;;;;10473708;28;20225;-69
